sensor_id;sensor_type;location;lat;lon;timestamp;temperature;humidity
58582;DHT22;44361;51.476;5.700;2022-10-04T00:00:26;11.30;99.90
58582;DHT22;44361;51.476;5.700;2022-10-04T00:02:57;11.30;99.90
58582;DHT22;44361;51.476;5.700;2022-10-04T00:05:26;11.30;99.90
58582;DHT22;44361;51.476;5.700;2022-10-04T00:07:58;11.30;99.90
58582;DHT22;44361;51.476;5.700;2022-10-04T00:10:29;11.30;99.90
58582;DHT22;44361;51.476;5.700;2022-10-04T00:12:58;11.30;99.90
58582;DHT22;44361;51.476;5.700;2022-10-04T00:15:30;11.30;99.90
58582;DHT22;44361;51.476;5.700;2022-10-04T00:25:55;11.40;99.90
58582;DHT22;44361;51.476;5.700;2022-10-04T00:31:19;11.30;99.90
58582;DHT22;44361;51.476;5.700;2022-10-04T00:39:22;11.10;99.90
58582;DHT22;44361;51.476;5.700;2022-10-04T00:45:12;11.00;99.90
58582;DHT22;44361;51.476;5.700;2022-10-04T00:50:27;10.90;99.90
58582;DHT22;44361;51.476;5.700;2022-10-04T00:52:56;10.80;99.90
58582;DHT22;44361;51.476;5.700;2022-10-04T00:55:34;10.80;99.90
58582;DHT22;44361;51.476;5.700;2022-10-04T00:58:04;10.70;99.90
58582;DHT22;44361;51.476;5.700;2022-10-04T01:00:32;10.70;99.90
58582;DHT22;44361;51.476;5.700;2022-10-04T01:03:25;10.60;99.90
58582;DHT22;44361;51.476;5.700;2022-10-04T01:05:54;10.70;99.90
58582;DHT22;44361;51.476;5.700;2022-10-04T01:08:51;10.70;99.90
58582;DHT22;44361;51.476;5.700;2022-10-04T01:11:22;10.70;99.90
58582;DHT22;44361;51.476;5.700;2022-10-04T01:14:08;10.60;99.90
58582;DHT22;44361;51.476;5.700;2022-10-04T01:16:36;10.60;99.90
58582;DHT22;44361;51.476;5.700;2022-10-04T01:21:46;10.70;99.90
58582;DHT22;44361;51.476;5.700;2022-10-04T01:24:21;10.70;99.90
58582;DHT22;44361;51.476;5.700;2022-10-04T01:26:47;10.70;99.90
58582;DHT22;44361;51.476;5.700;2022-10-04T01:29:27;10.70;99.90
58582;DHT22;44361;51.476;5.700;2022-10-04T01:31:56;10.60;99.90
58582;DHT22;44361;51.476;5.700;2022-10-04T01:34:27;10.60;99.90
58582;DHT22;44361;51.476;5.700;2022-10-04T01:36:58;10.50;99.90
58582;DHT22;44361;51.476;5.700;2022-10-04T01:39:24;10.50;99.90
58582;DHT22;44361;51.476;5.700;2022-10-04T01:42:02;10.40;99.90
58582;DHT22;44361;51.476;5.700;2022-10-04T01:44:44;10.40;99.90
58582;DHT22;44361;51.476;5.700;2022-10-04T01:47:17;10.30;99.90
58582;DHT22;44361;51.476;5.700;2022-10-04T01:49:44;10.30;99.90
58582;DHT22;44361;51.476;5.700;2022-10-04T01:52:25;10.20;99.90
58582;DHT22;44361;51.476;5.700;2022-10-04T01:55:08;10.20;99.90
58582;DHT22;44361;51.476;5.700;2022-10-04T01:57:40;10.20;99.90
58582;DHT22;44361;51.476;5.700;2022-10-04T02:00:09;10.10;99.90
58582;DHT22;44361;51.476;5.700;2022-10-04T02:02:59;10.10;99.90
58582;DHT22;44361;51.476;5.700;2022-10-04T02:05:34;10.10;99.90
58582;DHT22;44361;51.476;5.700;2022-10-04T02:08:07;10.10;99.90
58582;DHT22;44361;51.476;5.700;2022-10-04T02:10:35;10.00;99.90
58582;DHT22;44361;51.476;5.700;2022-10-04T02:13:08;10.00;99.90
58582;DHT22;44361;51.476;5.700;2022-10-04T02:15:35;10.00;99.90
58582;DHT22;44361;51.476;5.700;2022-10-04T02:18:13;9.90;99.90
58582;DHT22;44361;51.476;5.700;2022-10-04T02:20:40;10.00;99.90
58582;DHT22;44361;51.476;5.700;2022-10-04T02:23:06;9.90;99.90
58582;DHT22;44361;51.476;5.700;2022-10-04T02:25:35;10.00;99.90
58582;DHT22;44361;51.476;5.700;2022-10-04T02:28:02;10.00;99.90
58582;DHT22;44361;51.476;5.700;2022-10-04T02:30:28;10.00;99.90
58582;DHT22;44361;51.476;5.700;2022-10-04T02:32:59;10.00;99.90
58582;DHT22;44361;51.476;5.700;2022-10-04T02:35:33;10.00;99.90
58582;DHT22;44361;51.476;5.700;2022-10-04T02:41:04;10.00;99.90
58582;DHT22;44361;51.476;5.700;2022-10-04T02:43:42;9.90;99.90
58582;DHT22;44361;51.476;5.700;2022-10-04T02:46:34;9.90;99.90
58582;DHT22;44361;51.476;5.700;2022-10-04T02:51:48;9.80;99.90
58582;DHT22;44361;51.476;5.700;2022-10-04T02:54:37;9.90;99.90
58582;DHT22;44361;51.476;5.700;2022-10-04T02:57:04;9.80;99.90
58582;DHT22;44361;51.476;5.700;2022-10-04T02:59:30;9.80;99.90
58582;DHT22;44361;51.476;5.700;2022-10-04T03:01:59;9.80;99.90
58582;DHT22;44361;51.476;5.700;2022-10-04T03:07:48;9.80;99.90
58582;DHT22;44361;51.476;5.700;2022-10-04T03:10:16;9.70;99.90
58582;DHT22;44361;51.476;5.700;2022-10-04T03:12:41;9.70;99.90
58582;DHT22;44361;51.476;5.700;2022-10-04T03:15:09;9.70;99.90
58582;DHT22;44361;51.476;5.700;2022-10-04T03:17:36;9.70;99.90
58582;DHT22;44361;51.476;5.700;2022-10-04T03:20:04;9.70;99.90
58582;DHT22;44361;51.476;5.700;2022-10-04T03:22:30;9.70;99.90
58582;DHT22;44361;51.476;5.700;2022-10-04T03:24:56;9.70;99.90
58582;DHT22;44361;51.476;5.700;2022-10-04T03:27:30;9.70;99.90
58582;DHT22;44361;51.476;5.700;2022-10-04T03:29:56;9.60;99.90
58582;DHT22;44361;51.476;5.700;2022-10-04T03:32:24;9.60;99.90
58582;DHT22;44361;51.476;5.700;2022-10-04T03:34:55;9.50;99.90
58582;DHT22;44361;51.476;5.700;2022-10-04T03:37:21;9.50;99.90
58582;DHT22;44361;51.476;5.700;2022-10-04T03:39:49;9.50;99.90
58582;DHT22;44361;51.476;5.700;2022-10-04T03:42:30;9.40;99.90
58582;DHT22;44361;51.476;5.700;2022-10-04T03:45:03;9.40;99.90
58582;DHT22;44361;51.476;5.700;2022-10-04T03:47:36;9.40;99.90
58582;DHT22;44361;51.476;5.700;2022-10-04T03:50:17;9.30;99.90
58582;DHT22;44361;51.476;5.700;2022-10-04T03:52:51;9.30;99.90
58582;DHT22;44361;51.476;5.700;2022-10-04T03:55:18;9.30;99.90
58582;DHT22;44361;51.476;5.700;2022-10-04T03:57:44;9.20;99.90
58582;DHT22;44361;51.476;5.700;2022-10-04T04:00:14;9.20;99.90
58582;DHT22;44361;51.476;5.700;2022-10-04T04:02:51;9.20;99.90
58582;DHT22;44361;51.476;5.700;2022-10-04T04:05:40;9.10;99.90
58582;DHT22;44361;51.476;5.700;2022-10-04T04:08:26;9.10;99.90
58582;DHT22;44361;51.476;5.700;2022-10-04T04:10:55;9.10;99.90
58582;DHT22;44361;51.476;5.700;2022-10-04T04:13:29;9.10;99.90
58582;DHT22;44361;51.476;5.700;2022-10-04T04:15:57;9.10;99.90
58582;DHT22;44361;51.476;5.700;2022-10-04T04:18:34;9.00;99.90
58582;DHT22;44361;51.476;5.700;2022-10-04T04:21:02;9.00;99.90
58582;DHT22;44361;51.476;5.700;2022-10-04T04:23:31;9.00;99.90
58582;DHT22;44361;51.476;5.700;2022-10-04T04:28:48;9.00;99.90
58582;DHT22;44361;51.476;5.700;2022-10-04T04:31:23;9.00;99.90
58582;DHT22;44361;51.476;5.700;2022-10-04T04:34:00;9.00;99.90
58582;DHT22;44361;51.476;5.700;2022-10-04T04:36:31;9.00;99.90
58582;DHT22;44361;51.476;5.700;2022-10-04T04:39:18;8.90;99.90
58582;DHT22;44361;51.476;5.700;2022-10-04T04:42:37;8.90;99.90
58582;DHT22;44361;51.476;5.700;2022-10-04T04:45:14;8.90;99.90
58582;DHT22;44361;51.476;5.700;2022-10-04T04:47:43;8.90;99.90
58582;DHT22;44361;51.476;5.700;2022-10-04T04:50:36;8.80;99.90
58582;DHT22;44361;51.476;5.700;2022-10-04T04:53:08;8.90;99.90
58582;DHT22;44361;51.476;5.700;2022-10-04T04:55:41;8.80;99.90
58582;DHT22;44361;51.476;5.700;2022-10-04T04:58:17;8.80;99.90
58582;DHT22;44361;51.476;5.700;2022-10-04T05:00:52;8.80;99.90
58582;DHT22;44361;51.476;5.700;2022-10-04T05:03:18;8.80;99.90
58582;DHT22;44361;51.476;5.700;2022-10-04T05:05:46;8.80;99.90
58582;DHT22;44361;51.476;5.700;2022-10-04T05:08:17;8.90;99.90
58582;DHT22;44361;51.476;5.700;2022-10-04T05:13:57;9.00;99.90
58582;DHT22;44361;51.476;5.700;2022-10-04T05:16:46;9.00;99.90
58582;DHT22;44361;51.476;5.700;2022-10-04T05:19:21;9.10;99.90
58582;DHT22;44361;51.476;5.700;2022-10-04T05:21:52;9.20;99.90
58582;DHT22;44361;51.476;5.700;2022-10-04T05:24:25;9.20;99.90
58582;DHT22;44361;51.476;5.700;2022-10-04T05:27:00;9.20;99.90
58582;DHT22;44361;51.476;5.700;2022-10-04T05:29:27;9.20;99.90
58582;DHT22;44361;51.476;5.700;2022-10-04T05:34:42;9.20;99.90
58582;DHT22;44361;51.476;5.700;2022-10-04T05:42:44;9.10;99.90
58582;DHT22;44361;51.476;5.700;2022-10-04T05:45:22;9.10;99.90
58582;DHT22;44361;51.476;5.700;2022-10-04T05:47:51;9.10;99.90
58582;DHT22;44361;51.476;5.700;2022-10-04T05:50:30;9.00;99.90
58582;DHT22;44361;51.476;5.700;2022-10-04T05:56:00;9.00;99.90
58582;DHT22;44361;51.476;5.700;2022-10-04T06:07:00;9.10;99.90
58582;DHT22;44361;51.476;5.700;2022-10-04T06:12:09;9.20;99.90
58582;DHT22;44361;51.476;5.700;2022-10-04T06:22:55;9.30;99.90
58582;DHT22;44361;51.476;5.700;2022-10-04T06:25:33;9.30;99.90
58582;DHT22;44361;51.476;5.700;2022-10-04T06:30:50;9.40;99.90
58582;DHT22;44361;51.476;5.700;2022-10-04T06:33:24;9.40;99.90
58582;DHT22;44361;51.476;5.700;2022-10-04T07:00:23;10.20;99.90
58582;DHT22;44361;51.476;5.700;2022-10-04T07:03:51;10.20;99.90
58582;DHT22;44361;51.476;5.700;2022-10-04T07:05:50;10.20;99.90
58582;DHT22;44361;51.476;5.700;2022-10-04T07:08:21;10.20;99.90
58582;DHT22;44361;51.476;5.700;2022-10-04T07:11:27;10.30;99.90
58582;DHT22;44361;51.476;5.700;2022-10-04T07:16:34;10.20;99.90
58582;DHT22;44361;51.476;5.700;2022-10-04T07:19:05;10.20;99.90
58582;DHT22;44361;51.476;5.700;2022-10-04T07:21:40;10.20;99.90
58582;DHT22;44361;51.476;5.700;2022-10-04T07:24:11;10.20;99.90
58582;DHT22;44361;51.476;5.700;2022-10-04T07:26:48;10.20;99.90
58582;DHT22;44361;51.476;5.700;2022-10-04T07:29:27;10.10;99.90
58582;DHT22;44361;51.476;5.700;2022-10-04T07:32:08;10.20;99.90
58582;DHT22;44361;51.476;5.700;2022-10-04T07:37:10;10.30;99.90
58582;DHT22;44361;51.476;5.700;2022-10-04T07:40:00;10.40;99.90
58582;DHT22;44361;51.476;5.700;2022-10-04T07:47:48;10.70;99.90
58582;DHT22;44361;51.476;5.700;2022-10-04T07:50:27;10.90;99.90
58582;DHT22;44361;51.476;5.700;2022-10-04T08:01:32;11.50;99.90
58582;DHT22;44361;51.476;5.700;2022-10-04T08:07:23;11.80;99.90
58582;DHT22;44361;51.476;5.700;2022-10-04T08:13:02;12.20;99.90
58582;DHT22;44361;51.476;5.700;2022-10-04T08:15:37;12.30;99.90
58582;DHT22;44361;51.476;5.700;2022-10-04T08:21:09;12.50;99.90
58582;DHT22;44361;51.476;5.700;2022-10-04T08:23:54;12.60;99.90
58582;DHT22;44361;51.476;5.700;2022-10-04T08:35:36;13.10;99.90
58582;DHT22;44361;51.476;5.700;2022-10-04T08:38:09;13.00;99.90
58582;DHT22;44361;51.476;5.700;2022-10-04T08:41:15;13.00;99.90
58582;DHT22;44361;51.476;5.700;2022-10-04T08:46:57;13.40;99.90
58582;DHT22;44361;51.476;5.700;2022-10-04T09:01:10;13.40;99.90
58582;DHT22;44361;51.476;5.700;2022-10-04T09:09:41;13.70;99.90
58582;DHT22;44361;51.476;5.700;2022-10-04T09:12:34;13.90;99.90
58582;DHT22;44361;51.476;5.700;2022-10-04T09:21:10;14.40;99.90
58582;DHT22;44361;51.476;5.700;2022-10-04T09:23:42;14.50;99.90
58582;DHT22;44361;51.476;5.700;2022-10-04T09:26:23;14.60;99.90
58582;DHT22;44361;51.476;5.700;2022-10-04T09:37:57;15.00;99.90
58582;DHT22;44361;51.476;5.700;2022-10-04T09:43:55;15.10;99.90
58582;DHT22;44361;51.476;5.700;2022-10-04T09:52:09;15.40;99.90
58582;DHT22;44361;51.476;5.700;2022-10-04T10:09:55;15.80;99.90
58582;DHT22;44361;51.476;5.700;2022-10-04T10:26:55;16.40;99.90
58582;DHT22;44361;51.476;5.700;2022-10-04T10:38:12;16.50;99.90
58582;DHT22;44361;51.476;5.700;2022-10-04T10:54:44;17.10;99.90
58582;DHT22;44361;51.476;5.700;2022-10-04T11:06:10;17.00;99.90
58582;DHT22;44361;51.476;5.700;2022-10-04T11:11:53;16.90;99.90
58582;DHT22;44361;51.476;5.700;2022-10-04T11:14:47;16.90;99.90
58582;DHT22;44361;51.476;5.700;2022-10-04T11:20:51;17.20;99.90
58582;DHT22;44361;51.476;5.700;2022-10-04T11:29:24;17.60;99.90
58582;DHT22;44361;51.476;5.700;2022-10-04T11:40:08;17.70;99.90
58582;DHT22;44361;51.476;5.700;2022-10-04T11:47:59;17.90;99.30
58582;DHT22;44361;51.476;5.700;2022-10-04T11:56:16;18.00;99.90
58582;DHT22;44361;51.476;5.700;2022-10-04T12:09:58;18.50;99.90
58582;DHT22;44361;51.476;5.700;2022-10-04T12:12:44;18.60;99.60
58582;DHT22;44361;51.476;5.700;2022-10-04T12:15:33;18.70;99.40
58582;DHT22;44361;51.476;5.700;2022-10-04T12:31:51;18.90;98.50
58582;DHT22;44361;51.476;5.700;2022-10-04T12:34:46;18.90;98.00
58582;DHT22;44361;51.476;5.700;2022-10-04T12:37:32;19.00;98.50
58582;DHT22;44361;51.476;5.700;2022-10-04T12:43:06;19.10;98.70
58582;DHT22;44361;51.476;5.700;2022-10-04T12:48:56;18.80;99.50
58582;DHT22;44361;51.476;5.700;2022-10-04T12:51:34;18.80;98.70
58582;DHT22;44361;51.476;5.700;2022-10-04T12:56:45;19.00;99.10
58582;DHT22;44361;51.476;5.700;2022-10-04T12:59:25;18.90;98.70
58582;DHT22;44361;51.476;5.700;2022-10-04T13:16:35;18.60;98.00
58582;DHT22;44361;51.476;5.700;2022-10-04T13:19:21;18.60;97.50
58582;DHT22;44361;51.476;5.700;2022-10-04T13:25:13;18.60;97.60
58582;DHT22;44361;51.476;5.700;2022-10-04T13:27:49;18.60;96.80
58582;DHT22;44361;51.476;5.700;2022-10-04T13:30:22;18.60;97.30
58582;DHT22;44361;51.476;5.700;2022-10-04T13:33:00;18.60;97.60
58582;DHT22;44361;51.476;5.700;2022-10-04T13:35:33;18.60;97.30
58582;DHT22;44361;51.476;5.700;2022-10-04T13:38:27;18.60;97.30
58582;DHT22;44361;51.476;5.700;2022-10-04T13:41:22;18.60;96.90
58582;DHT22;44361;51.476;5.700;2022-10-04T13:49:54;18.70;97.50
58582;DHT22;44361;51.476;5.700;2022-10-04T13:58:58;19.00;96.50
58582;DHT22;44361;51.476;5.700;2022-10-04T14:02:00;19.00;96.40
58582;DHT22;44361;51.476;5.700;2022-10-04T14:05:02;19.00;96.30
58582;DHT22;44361;51.476;5.700;2022-10-04T14:08:09;18.80;96.40
58582;DHT22;44361;51.476;5.700;2022-10-04T14:14:13;18.70;96.10
58582;DHT22;44361;51.476;5.700;2022-10-04T14:17:04;18.70;95.70
58582;DHT22;44361;51.476;5.700;2022-10-04T14:25:36;18.30;97.10
58582;DHT22;44361;51.476;5.700;2022-10-04T14:31:15;18.40;98.10
58582;DHT22;44361;51.476;5.700;2022-10-04T14:36:44;18.50;98.30
58582;DHT22;44361;51.476;5.700;2022-10-04T14:39:25;18.50;98.20
58582;DHT22;44361;51.476;5.700;2022-10-04T14:42:22;18.60;98.20
58582;DHT22;44361;51.476;5.700;2022-10-04T14:50:53;19.00;98.10
58582;DHT22;44361;51.476;5.700;2022-10-04T14:59:15;18.80;98.30
58582;DHT22;44361;51.476;5.700;2022-10-04T15:07:49;18.60;98.40
58582;DHT22;44361;51.476;5.700;2022-10-04T15:10:25;18.60;98.30
58582;DHT22;44361;51.476;5.700;2022-10-04T15:13:02;18.50;98.70
58582;DHT22;44361;51.476;5.700;2022-10-04T15:18:26;18.30;99.40
58582;DHT22;44361;51.476;5.700;2022-10-04T15:21:03;18.30;99.20
58582;DHT22;44361;51.476;5.700;2022-10-04T15:23:39;18.30;99.60
58582;DHT22;44361;51.476;5.700;2022-10-04T15:31:33;18.30;99.70
58582;DHT22;44361;51.476;5.700;2022-10-04T15:39:06;18.00;99.90
58582;DHT22;44361;51.476;5.700;2022-10-04T15:42:12;17.90;99.90
58582;DHT22;44361;51.476;5.700;2022-10-04T15:51:07;17.80;99.60
58582;DHT22;44361;51.476;5.700;2022-10-04T15:53:49;17.70;99.60
58582;DHT22;44361;51.476;5.700;2022-10-04T15:56:58;17.60;99.90
58582;DHT22;44361;51.476;5.700;2022-10-04T16:02:02;17.50;99.90
58582;DHT22;44361;51.476;5.700;2022-10-04T16:04:44;17.40;99.90
58582;DHT22;44361;51.476;5.700;2022-10-04T16:07:51;17.30;99.90
58582;DHT22;44361;51.476;5.700;2022-10-04T16:10:26;17.20;99.90
58582;DHT22;44361;51.476;5.700;2022-10-04T16:13:08;17.10;99.90
58582;DHT22;44361;51.476;5.700;2022-10-04T16:15:43;17.10;99.90
58582;DHT22;44361;51.476;5.700;2022-10-04T16:21:11;17.00;99.90
58582;DHT22;44361;51.476;5.700;2022-10-04T16:23:41;17.00;99.90
58582;DHT22;44361;51.476;5.700;2022-10-04T16:27:02;16.90;99.90
58582;DHT22;44361;51.476;5.700;2022-10-04T16:31:46;16.80;99.90
58582;DHT22;44361;51.476;5.700;2022-10-04T16:37:03;16.70;99.90
58582;DHT22;44361;51.476;5.700;2022-10-04T16:47:37;16.40;99.90
58582;DHT22;44361;51.476;5.700;2022-10-04T16:50:09;16.30;99.90
58582;DHT22;44361;51.476;5.700;2022-10-04T17:04:08;15.70;99.90
58582;DHT22;44361;51.476;5.700;2022-10-04T17:07:12;15.50;99.90
58582;DHT22;44361;51.476;5.700;2022-10-04T17:18:12;15.00;99.90
58582;DHT22;44361;51.476;5.700;2022-10-04T17:40:25;14.40;99.90
58582;DHT22;44361;51.476;5.700;2022-10-04T17:43:03;14.30;99.90
58582;DHT22;44361;51.476;5.700;2022-10-04T17:45:41;14.30;99.90
58582;DHT22;44361;51.476;5.700;2022-10-04T17:48:15;14.20;99.90
58582;DHT22;44361;51.476;5.700;2022-10-04T17:54:00;14.20;99.90
58582;DHT22;44361;51.476;5.700;2022-10-04T17:57:08;14.20;99.90
58582;DHT22;44361;51.476;5.700;2022-10-04T17:59:43;14.20;99.90
58582;DHT22;44361;51.476;5.700;2022-10-04T18:02:41;14.20;99.90
58582;DHT22;44361;51.476;5.700;2022-10-04T18:05:20;14.20;99.90
58582;DHT22;44361;51.476;5.700;2022-10-04T18:11:00;14.20;99.90
58582;DHT22;44361;51.476;5.700;2022-10-04T18:13:35;14.10;99.90
58582;DHT22;44361;51.476;5.700;2022-10-04T18:16:28;14.10;99.90
58582;DHT22;44361;51.476;5.700;2022-10-04T18:19:00;14.10;99.90
58582;DHT22;44361;51.476;5.700;2022-10-04T18:21:28;14.20;99.90
58582;DHT22;44361;51.476;5.700;2022-10-04T18:24:20;14.30;99.90
58582;DHT22;44361;51.476;5.700;2022-10-04T18:26:59;14.30;99.90
58582;DHT22;44361;51.476;5.700;2022-10-04T18:29:41;14.40;99.90
58582;DHT22;44361;51.476;5.700;2022-10-04T18:35:27;14.30;99.90
58582;DHT22;44361;51.476;5.700;2022-10-04T18:40:34;14.20;99.90
58582;DHT22;44361;51.476;5.700;2022-10-04T18:43:33;14.20;99.90
58582;DHT22;44361;51.476;5.700;2022-10-04T18:48:43;14.00;99.90
58582;DHT22;44361;51.476;5.700;2022-10-04T18:51:28;13.80;99.90
58582;DHT22;44361;51.476;5.700;2022-10-04T18:57:25;13.70;99.90
58582;DHT22;44361;51.476;5.700;2022-10-04T19:00:03;13.70;99.90
58582;DHT22;44361;51.476;5.700;2022-10-04T19:06:17;13.60;99.90
58582;DHT22;44361;51.476;5.700;2022-10-04T19:08:57;13.50;99.90
58582;DHT22;44361;51.476;5.700;2022-10-04T19:20:02;13.40;99.90
58582;DHT22;44361;51.476;5.700;2022-10-04T19:28:07;13.30;99.90
58582;DHT22;44361;51.476;5.700;2022-10-04T19:33:54;13.30;99.90
58582;DHT22;44361;51.476;5.700;2022-10-04T19:36:44;13.20;99.90
58582;DHT22;44361;51.476;5.700;2022-10-04T19:42:16;13.20;99.90
58582;DHT22;44361;51.476;5.700;2022-10-04T19:47:56;13.10;99.90
58582;DHT22;44361;51.476;5.700;2022-10-04T19:53:15;13.10;99.90
58582;DHT22;44361;51.476;5.700;2022-10-04T19:55:55;13.10;99.90
58582;DHT22;44361;51.476;5.700;2022-10-04T20:00:54;13.10;99.90
58582;DHT22;44361;51.476;5.700;2022-10-04T20:03:20;13.10;99.90
58582;DHT22;44361;51.476;5.700;2022-10-04T20:05:51;13.00;99.90
58582;DHT22;44361;51.476;5.700;2022-10-04T20:11:24;13.00;99.90
58582;DHT22;44361;51.476;5.700;2022-10-04T20:19:20;13.00;99.90
58582;DHT22;44361;51.476;5.700;2022-10-04T20:27:00;13.00;99.90
58582;DHT22;44361;51.476;5.700;2022-10-04T20:35:12;12.90;99.90
58582;DHT22;44361;51.476;5.700;2022-10-04T20:38:13;12.90;99.90
58582;DHT22;44361;51.476;5.700;2022-10-04T20:45:49;12.80;99.90
58582;DHT22;44361;51.476;5.700;2022-10-04T20:48:26;12.80;99.90
58582;DHT22;44361;51.476;5.700;2022-10-04T20:50:53;12.80;99.90
58582;DHT22;44361;51.476;5.700;2022-10-04T20:53:30;12.80;99.90
58582;DHT22;44361;51.476;5.700;2022-10-04T20:56:16;12.80;99.90
58582;DHT22;44361;51.476;5.700;2022-10-04T20:58:50;12.90;99.90
58582;DHT22;44361;51.476;5.700;2022-10-04T21:06:54;13.10;99.90
58582;DHT22;44361;51.476;5.700;2022-10-04T21:09:20;13.10;99.90
58582;DHT22;44361;51.476;5.700;2022-10-04T21:11:49;13.20;99.90
58582;DHT22;44361;51.476;5.700;2022-10-04T21:14:26;13.20;99.90
58582;DHT22;44361;51.476;5.700;2022-10-04T21:16:53;13.10;99.90
58582;DHT22;44361;51.476;5.700;2022-10-04T21:19:38;13.20;99.90
58582;DHT22;44361;51.476;5.700;2022-10-04T21:24:51;13.40;99.90
58582;DHT22;44361;51.476;5.700;2022-10-04T21:29:59;13.40;99.90
58582;DHT22;44361;51.476;5.700;2022-10-04T21:32:26;13.30;99.90
58582;DHT22;44361;51.476;5.700;2022-10-04T21:34:56;13.30;99.90
58582;DHT22;44361;51.476;5.700;2022-10-04T21:37:22;13.40;99.90
58582;DHT22;44361;51.476;5.700;2022-10-04T21:39:47;13.40;99.90
58582;DHT22;44361;51.476;5.700;2022-10-04T21:42:13;13.40;99.90
58582;DHT22;44361;51.476;5.700;2022-10-04T21:44:38;13.50;99.90
58582;DHT22;44361;51.476;5.700;2022-10-04T21:47:04;13.50;99.90
58582;DHT22;44361;51.476;5.700;2022-10-04T21:49:29;13.60;99.90
58582;DHT22;44361;51.476;5.700;2022-10-04T21:51:55;13.60;99.90
58582;DHT22;44361;51.476;5.700;2022-10-04T21:54:21;13.70;99.90
58582;DHT22;44361;51.476;5.700;2022-10-04T21:56:46;13.70;99.90
58582;DHT22;44361;51.476;5.700;2022-10-04T21:59:12;13.70;99.90
58582;DHT22;44361;51.476;5.700;2022-10-04T22:01:37;13.70;99.90
58582;DHT22;44361;51.476;5.700;2022-10-04T22:04:03;13.80;99.90
58582;DHT22;44361;51.476;5.700;2022-10-04T22:06:28;13.80;99.90
58582;DHT22;44361;51.476;5.700;2022-10-04T22:08:54;13.80;99.90
58582;DHT22;44361;51.476;5.700;2022-10-04T22:11:19;13.80;99.90
58582;DHT22;44361;51.476;5.700;2022-10-04T22:13:45;13.80;99.90
58582;DHT22;44361;51.476;5.700;2022-10-04T22:16:12;13.80;99.90
58582;DHT22;44361;51.476;5.700;2022-10-04T22:18:37;13.80;99.90
58582;DHT22;44361;51.476;5.700;2022-10-04T22:21:03;13.80;99.90
58582;DHT22;44361;51.476;5.700;2022-10-04T22:23:35;13.80;99.90
58582;DHT22;44361;51.476;5.700;2022-10-04T22:26:12;13.80;99.90
58582;DHT22;44361;51.476;5.700;2022-10-04T22:28:45;13.80;99.90
58582;DHT22;44361;51.476;5.700;2022-10-04T22:31:12;13.80;99.90
58582;DHT22;44361;51.476;5.700;2022-10-04T22:33:40;13.90;99.90
58582;DHT22;44361;51.476;5.700;2022-10-04T22:36:20;13.80;99.90
58582;DHT22;44361;51.476;5.700;2022-10-04T22:38:59;13.80;99.90
58582;DHT22;44361;51.476;5.700;2022-10-04T22:41:33;13.80;99.90
58582;DHT22;44361;51.476;5.700;2022-10-04T22:44:06;13.80;99.90
58582;DHT22;44361;51.476;5.700;2022-10-04T22:46:38;13.80;99.90
58582;DHT22;44361;51.476;5.700;2022-10-04T22:49:10;13.80;99.90
58582;DHT22;44361;51.476;5.700;2022-10-04T22:51:38;13.80;99.90
58582;DHT22;44361;51.476;5.700;2022-10-04T22:54:23;13.80;99.90
58582;DHT22;44361;51.476;5.700;2022-10-04T22:56:50;13.80;99.90
58582;DHT22;44361;51.476;5.700;2022-10-04T22:59:17;13.90;99.90
58582;DHT22;44361;51.476;5.700;2022-10-04T23:01:44;13.80;99.90
58582;DHT22;44361;51.476;5.700;2022-10-04T23:04:21;13.80;99.90
58582;DHT22;44361;51.476;5.700;2022-10-04T23:06:47;13.80;99.90
58582;DHT22;44361;51.476;5.700;2022-10-04T23:09:13;13.80;99.90
58582;DHT22;44361;51.476;5.700;2022-10-04T23:11:38;13.80;99.90
58582;DHT22;44361;51.476;5.700;2022-10-04T23:14:04;13.80;99.90
58582;DHT22;44361;51.476;5.700;2022-10-04T23:16:30;13.80;99.90
58582;DHT22;44361;51.476;5.700;2022-10-04T23:19:09;13.80;99.90
58582;DHT22;44361;51.476;5.700;2022-10-04T23:21:37;13.80;99.90
58582;DHT22;44361;51.476;5.700;2022-10-04T23:24:18;13.90;99.90
58582;DHT22;44361;51.476;5.700;2022-10-04T23:26:46;13.90;99.90
58582;DHT22;44361;51.476;5.700;2022-10-04T23:31:44;13.90;99.90
58582;DHT22;44361;51.476;5.700;2022-10-04T23:34:16;13.90;99.90
58582;DHT22;44361;51.476;5.700;2022-10-04T23:36:43;13.90;99.90
58582;DHT22;44361;51.476;5.700;2022-10-04T23:39:12;13.90;99.90
58582;DHT22;44361;51.476;5.700;2022-10-04T23:41:42;13.90;99.90
58582;DHT22;44361;51.476;5.700;2022-10-04T23:44:12;13.90;99.90
58582;DHT22;44361;51.476;5.700;2022-10-04T23:46:40;13.90;99.90
58582;DHT22;44361;51.476;5.700;2022-10-04T23:49:12;13.90;99.90
58582;DHT22;44361;51.476;5.700;2022-10-04T23:51:39;14.00;99.90
58582;DHT22;44361;51.476;5.700;2022-10-04T23:54:09;14.00;99.90
58582;DHT22;44361;51.476;5.700;2022-10-04T23:56:35;14.00;99.90
58582;DHT22;44361;51.476;5.700;2022-10-04T23:59:01;14.00;99.90
